Time;durP1;ratioP1;P1;durP2;ratioP2;P2;SDS_P1;SDS_P2;PMS_P1;PMS_P2;Temp;Humidity;BMP_temperature;BMP_pressure;BME280_temperature;BME280_humidity;BME280_pressure;Samples;Min_cycle;Max_cycle;Signal;HPM_P1;HPM_P2
2022/10/23 07:34:10;;;;;;;1.85;0.90;;;;;;;14.47;74.08;96441.69;2104964;27;20705;-63
2022/10/23 07:35:16;;;;;;;4.88;1.20;;;;;;;14.58;74.06;96453.31;2098398;28;20281;-63
2022/10/23 07:36:18;;;;;;;1.60;0.85;;;;;;;14.50;73.66;96446.78;2090740;28;20646;-64
2022/10/23 07:37:19;;;;;;;2.35;1.13;;;;;;;14.45;73.43;96448.84;2091577;28;20195;-64
2022/10/23 07:38:21;;;;;;;3.35;0.88;;;;;;;14.33;73.68;96447.81;2091612;28;20832;-64
2022/10/23 07:39:22;;;;;;;3.25;0.90;;;;;;;14.49;73.99;96450.34;2086721;28;20323;-64
2022/10/23 07:40:24;;;;;;;9.68;0.80;;;;;;;14.59;72.95;96452.38;2087742;28;20230;-64
2022/10/23 07:41:25;;;;;;;8.50;1.52;;;;;;;14.60;73.10;96452.28;2090581;28;20192;-64
2022/10/23 07:42:27;;;;;;;2.08;1.00;;;;;;;14.75;72.16;96447.84;2091360;28;20230;-64
2022/10/23 07:43:28;;;;;;;2.60;1.02;;;;;;;14.85;72.82;96440.22;2092430;28;20201;-65
2022/10/23 07:44:30;;;;;;;1.80;0.95;;;;;;;15.25;71.43;96452.50;2094007;28;20235;-64
2022/10/23 07:45:31;;;;;;;6.60;1.17;;;;;;;15.52;70.94;96449.81;2094597;28;20303;-64
2022/10/23 07:46:32;;;;;;;5.72;1.00;;;;;;;15.82;69.88;96446.06;2092684;28;20592;-64
2022/10/23 07:47:34;;;;;;;1.83;0.80;;;;;;;16.15;68.89;96445.53;2092051;28;20204;-64
2022/10/23 07:48:37;;;;;;;2.42;0.80;;;;;;;16.21;66.58;96448.66;2088363;28;20230;-64
2022/10/23 07:49:38;;;;;;;2.50;0.95;;;;;;;16.13;67.69;96459.75;2088959;28;20244;-65
2022/10/23 07:50:39;;;;;;;1.40;0.80;;;;;;;16.26;68.12;96459.72;2087142;28;20320;-64
2022/10/23 07:51:42;;;;;;;2.20;0.90;;;;;;;16.62;66.46;96455.41;2089375;28;20239;-65
2022/10/23 07:52:49;;;;;;;8.95;1.08;;;;;;;17.07;65.46;96457.47;2089395;28;20200;-66
2022/10/23 07:53:50;;;;;;;3.10;0.85;;;;;;;17.05;64.55;96454.09;2089507;28;20620;-66
2022/10/23 07:54:52;;;;;;;1.90;0.95;;;;;;;16.79;65.58;96452.38;2090630;28;20298;-66
2022/10/23 07:55:58;;;;;;;3.20;0.65;;;;;;;16.90;65.28;96456.03;2090658;28;20315;-66
2022/10/23 07:57:00;;;;;;;3.38;1.00;;;;;;;16.95;65.80;96446.88;2088706;28;20679;-66
2022/10/23 07:58:01;;;;;;;2.30;0.85;;;;;;;17.09;64.83;96439.72;2089852;28;20223;-66
2022/10/23 07:59:03;;;;;;;1.92;0.70;;;;;;;17.42;64.26;96439.00;2090141;28;20287;-66
2022/10/23 08:00:05;;;;;;;1.10;0.70;;;;;;;17.76;62.61;96438.22;2091317;28;20683;-66
2022/10/23 08:01:19;;;;;;;3.72;0.70;;;;;;;17.66;62.99;96438.13;2091382;28;20227;-67
2022/10/23 08:02:20;;;;;;;5.47;0.70;;;;;;;18.03;62.10;96437.94;2091109;28;20238;-67
2022/10/23 08:10:07;;;;;;;3.05;0.95;;;;;;;19.48;57.93;96436.00;2097648;28;20222;-66
2022/10/23 08:11:13;;;;;;;3.22;0.88;;;;;;;19.62;57.86;96440.13;2098402;28;20199;-67
2022/10/23 08:12:14;;;;;;;1.50;0.73;;;;;;;20.27;56.76;96441.75;2099462;28;20748;-66
2022/10/23 08:13:16;;;;;;;1.60;0.68;;;;;;;20.49;55.12;96424.78;2099411;28;20282;-66
2022/10/23 08:14:18;;;;;;;3.00;0.70;;;;;;;20.63;54.90;96431.50;2100549;28;20274;-66
2022/10/23 08:15:19;;;;;;;1.80;0.80;;;;;;;20.46;55.73;96422.41;2098685;28;21264;-67
2022/10/23 08:16:24;;;;;;;4.53;0.90;;;;;;;20.95;54.41;96428.66;2098731;28;20235;-67
2022/10/23 08:17:26;;;;;;;10.68;0.90;;;;;;;21.25;53.71;96432.16;2100640;28;20218;-67
2022/10/23 08:18:28;;;;;;;3.97;0.77;;;;;;;21.35;52.41;96425.00;2099300;28;20200;-66
2022/10/23 08:19:30;;;;;;;5.32;0.82;;;;;;;21.76;52.36;96427.47;2098763;28;20355;-67
2022/10/23 08:20:33;;;;;;;4.20;1.10;;;;;;;21.26;53.03;96427.69;2098714;28;20314;-65
2022/10/23 08:27:04;;;;;;;2.10;0.90;;;;;;;19.16;58.99;96415.72;2097679;28;20207;-66
2022/10/23 08:28:06;;;;;;;2.33;0.80;;;;;;;19.32;59.65;96419.72;2098826;28;20212;-66
2022/10/23 08:29:08;;;;;;;2.38;0.98;;;;;;;19.70;58.11;96418.28;2098125;28;20337;-66
2022/10/23 08:30:10;;;;;;;3.03;0.95;;;;;;;19.63;59.08;96417.13;2097997;28;20287;-66
2022/10/23 08:31:16;;;;;;;2.05;1.00;;;;;;;20.23;57.21;96418.13;2098657;28;20242;-66
2022/10/23 08:32:18;;;;;;;4.30;1.42;;;;;;;20.64;56.08;96427.88;2099104;28;20289;-66
2022/10/23 08:33:20;;;;;;;3.15;0.75;;;;;;;20.23;57.27;96419.97;2099447;28;20253;-65
2022/10/23 08:34:22;;;;;;;1.58;0.82;;;;;;;20.93;55.52;96422.66;2098331;28;20255;-66
2022/10/23 08:35:24;;;;;;;4.60;0.90;;;;;;;21.12;54.02;96423.66;2097885;28;20365;-66
2022/10/23 08:36:28;;;;;;;2.00;0.85;;;;;;;21.04;54.29;96429.66;2096885;28;20282;-66
2022/10/23 08:37:30;;;;;;;1.80;0.70;;;;;;;20.96;54.61;96425.03;2095215;28;20322;-66
2022/10/23 08:38:32;;;;;;;2.60;0.90;;;;;;;21.05;54.62;96418.03;2097437;28;20219;-66
2022/10/23 08:39:34;;;;;;;1.42;0.80;;;;;;;21.37;53.14;96416.94;2097877;28;20571;-66
2022/10/23 08:40:35;;;;;;;3.28;0.88;;;;;;;21.28;53.09;96410.63;2097104;28;20222;-66
2022/10/23 08:41:42;;;;;;;5.15;0.70;;;;;;;20.99;53.41;96413.31;2095133;28;20562;-66
2022/10/23 08:42:50;;;;;;;2.53;0.80;;;;;;;20.78;54.17;96430.16;2099740;28;20231;-66
2022/10/23 08:44:06;;;;;;;1.40;0.70;;;;;;;21.64;52.89;96428.66;2097537;28;20200;-66
2022/10/23 08:45:27;;;;;;;1.90;0.85;;;;;;;21.90;51.40;96407.59;2094072;28;20211;-65
2022/10/23 08:46:34;;;;;;;8.05;0.90;;;;;;;21.58;52.16;96421.25;2091616;28;20211;-66
2022/10/23 08:47:44;;;;;;;1.90;0.88;;;;;;;21.08;53.65;96415.13;2099425;28;20282;-66
2022/10/23 08:48:50;;;;;;;3.33;0.80;;;;;;;21.53;51.44;96426.94;2097573;28;20661;-66
2022/10/23 08:50:02;;;;;;;2.40;0.82;;;;;;;21.99;51.18;96422.69;2095328;28;20306;-66
2022/10/23 08:57:59;;;;;;;2.38;0.70;;;;;;;23.95;46.03;96415.16;2092570;28;20304;-67
2022/10/23 08:59:06;;;;;;;2.50;0.98;;;;;;;24.04;46.23;96419.53;2092822;28;20247;-67
2022/10/23 09:00:13;;;;;;;4.65;0.82;;;;;;;24.27;45.00;96416.31;2093602;28;20188;-67
2022/10/23 09:01:30;;;;;;;2.22;0.80;;;;;;;24.43;44.98;96411.06;2093936;28;20822;-67
2022/10/23 09:02:39;;;;;;;1.80;0.90;;;;;;;24.42;45.57;96414.72;2096181;28;20210;-67
2022/10/23 09:09:05;;;;;;;3.30;0.90;;;;;;;26.43;41.36;96418.94;2092935;28;20252;-65
2022/10/23 09:10:44;;;;;;;1.83;0.80;;;;;;;26.27;41.77;96408.31;2092991;28;20267;-65
2022/10/23 09:12:03;;;;;;;3.60;0.70;;;;;;;26.23;41.00;96408.66;2094905;28;20203;-65
2022/10/23 09:13:26;;;;;;;2.05;0.82;;;;;;;25.02;43.06;96410.22;2093793;28;20226;-65
2022/10/23 09:14:46;;;;;;;2.30;0.90;;;;;;;25.73;42.59;96415.94;2093914;28;20762;-67
2022/10/23 09:34:00;;;;;;;2.35;0.90;;;;;;;23.71;45.29;96363.34;2092421;28;20684;-65
2022/10/23 09:35:03;;;;;;;1.48;0.80;;;;;;;24.31;44.91;96392.84;2089246;28;20687;-65
2022/10/23 09:36:08;;;;;;;3.42;0.85;;;;;;;23.72;46.01;96393.47;2089393;28;20204;-64
2022/10/23 09:37:24;;;;;;;1.67;0.90;;;;;;;24.07;45.37;96389.88;2095414;28;20208;-65
2022/10/23 09:38:34;;;;;;;2.30;0.85;;;;;;;23.52;46.80;96383.03;2096478;28;20234;-66
2022/10/23 09:39:35;;;;;;;3.05;1.35;;;;;;;23.73;47.00;96379.16;2091850;28;20232;-66
2022/10/23 09:40:41;;;;;;;2.08;0.70;;;;;;;23.86;45.05;96381.41;2088593;28;20287;-66
2022/10/23 09:41:43;;;;;;;5.65;0.93;;;;;;;24.55;44.35;96368.88;2090449;28;20204;-66
2022/10/23 09:43:02;;;;;;;4.32;0.90;;;;;;;24.97;43.68;96375.16;2093001;28;21024;-66
2022/10/23 09:44:07;;;;;;;2.15;1.35;;;;;;;25.27;43.88;96376.34;2091411;28;20211;-66
2022/10/23 09:45:25;;;;;;;3.75;1.30;;;;;;;24.93;43.58;96379.19;2097966;28;20195;-65
2022/10/23 09:46:44;;;;;;;4.38;0.70;;;;;;;24.84;43.80;96369.50;2097326;28;20382;-66
2022/10/23 09:47:46;;;;;;;1.80;1.23;;;;;;;24.68;44.20;96333.75;2095176;28;20191;-66
2022/10/23 09:48:56;;;;;;;1.05;0.65;;;;;;;25.07;44.76;96367.81;2089555;28;20196;-65
2022/10/23 09:50:02;;;;;;;2.75;0.90;;;;;;;25.86;42.38;96363.78;2091796;28;20219;-65
2022/10/23 09:51:19;;;;;;;1.55;0.60;;;;;;;25.55;42.86;96356.50;2097413;28;20458;-66
2022/10/23 09:52:21;;;;;;;1.98;0.80;;;;;;;25.29;43.77;96364.66;2094436;28;20317;-66
2022/10/23 09:53:30;;;;;;;1.77;0.90;;;;;;;24.75;44.05;96355.28;2095833;28;20674;-66
2022/10/23 09:54:44;;;;;;;1.65;0.85;;;;;;;24.67;43.32;96368.59;2094477;28;20722;-65
2022/10/23 09:55:58;;;;;;;1.83;0.80;;;;;;;24.40;45.49;96375.84;2091682;28;20229;-66
2022/10/23 09:57:32;;;;;;;3.30;1.00;;;;;;;24.03;44.82;96377.03;2091789;28;20290;-66
2022/10/23 09:58:38;;;;;;;4.10;0.70;;;;;;;23.70;45.94;96383.00;2089160;28;20636;-63
2022/10/23 09:59:41;;;;;;;1.25;0.77;;;;;;;23.57;46.41;96385.25;2091319;28;20320;-65
2022/10/23 10:00:45;;;;;;;3.90;0.80;;;;;;;23.98;46.20;96388.19;2091365;28;20705;-65
2022/10/23 10:01:50;;;;;;;1.55;0.70;;;;;;;24.47;45.49;96400.91;2091682;28;20199;-66
2022/10/23 10:09:32;;;;;;;2.00;0.70;;;;;;;22.83;46.76;96375.63;2092810;28;20219;-66
2022/10/23 10:10:38;;;;;;;2.55;0.80;;;;;;;22.98;47.34;96380.41;2092924;28;20224;-66
2022/10/23 10:11:54;;;;;;;1.55;0.70;;;;;;;22.78;46.83;96380.56;2096536;28;20874;-66
2022/10/23 10:13:00;;;;;;;1.92;0.60;;;;;;;22.52;47.77;96384.97;2094883;28;20237;-63
2022/10/23 10:14:07;;;;;;;14.77;0.90;;;;;;;22.48;48.37;96387.06;2089925;28;20207;-64
2022/10/23 10:15:21;;;;;;;2.65;0.90;;;;;;;22.78;48.00;96379.75;2088970;28;20710;-63
2022/10/23 10:16:49;;;;;;;8.38;0.80;;;;;;;22.78;46.76;96372.59;2090686;28;20242;-63
2022/10/23 10:18:00;;;;;;;1.90;0.70;;;;;;;22.46;47.74;96387.22;2092124;28;20230;-63
2022/10/23 10:19:13;;;;;;;2.35;0.80;;;;;;;23.08;47.00;96381.16;2089500;28;20202;-63
2022/10/23 10:20:39;;;;;;;1.65;0.90;;;;;;;23.00;47.69;96381.94;2096358;28;20206;-64
2022/10/23 10:22:03;;;;;;;2.08;0.80;;;;;;;23.32;46.54;96382.41;2094160;28;20200;-64
2022/10/23 10:23:33;;;;;;;1.90;0.82;;;;;;;23.51;46.45;96378.69;2092505;28;20192;-64
2022/10/23 10:24:43;;;;;;;3.70;0.80;;;;;;;22.39;48.71;96364.03;2074899;28;20355;-64
2022/10/23 10:26:13;;;;;;;5.10;0.80;;;;;;;22.51;49.17;96378.78;2093288;28;20219;-64
2022/10/23 10:34:29;;;;;;;1.20;0.60;;;;;;;23.47;47.65;96362.19;2089031;28;20644;-64
2022/10/23 10:35:41;;;;;;;1.15;0.70;;;;;;;22.47;49.68;96353.47;2091801;28;20279;-64
2022/10/23 10:36:42;;;;;;;1.55;0.70;;;;;;;21.87;51.40;96356.56;2091902;28;20231;-64
2022/10/23 10:38:27;;;;;;;1.20;0.70;;;;;;;22.24;49.52;96350.38;2092723;28;20633;-65
2022/10/23 10:39:32;;;;;;;1.73;0.77;;;;;;;21.27;52.68;96344.38;2091706;28;20220;-65
2022/10/23 10:40:38;;;;;;;1.85;0.80;;;;;;;20.99;53.89;96342.47;2091959;28;20196;-64
2022/10/23 10:42:15;;;;;;;2.38;0.60;;;;;;;21.24;53.21;96342.84;2092296;28;20192;-65
2022/10/23 10:43:52;;;;;;;1.10;0.60;;;;;;;21.45;53.63;96344.50;2090981;28;20228;-65
2022/10/23 10:45:14;;;;;;;2.15;1.15;;;;;;;21.13;53.33;96343.03;2076641;28;20220;-64
2022/10/23 10:46:41;;;;;;;2.35;0.95;;;;;;;21.41;53.02;96356.38;2074533;28;20202;-64
2022/10/23 10:48:01;;;;;;;2.10;0.82;;;;;;;21.23;53.48;96362.44;2075302;28;20320;-64
2022/10/23 10:49:22;;;;;;;1.65;0.80;;;;;;;20.67;54.71;96361.28;2077878;28;20239;-64
2022/10/23 10:50:52;;;;;;;2.10;0.90;;;;;;;20.74;54.85;96381.00;2075236;28;20201;-65
2022/10/23 10:52:06;;;;;;;3.65;0.80;;;;;;;20.75;54.75;96371.22;2072985;28;20276;-64
2022/10/23 10:53:26;;;;;;;1.73;0.80;;;;;;;20.67;56.02;96370.09;2073039;28;20198;-64
2022/10/23 10:54:46;;;;;;;2.55;0.60;;;;;;;20.22;56.83;96366.09;2072555;28;20244;-64
2022/10/23 10:55:51;;;;;;;2.20;0.90;;;;;;;19.97;57.35;96354.19;2072722;28;20296;-64
2022/10/23 11:08:21;;;;;;;3.63;0.90;;;;;;;20.66;54.53;96339.22;2074279;28;20182;-64
2022/10/23 11:09:29;;;;;;;4.20;0.80;;;;;;;20.72;54.63;96316.63;2074224;28;20253;-64
2022/10/23 11:10:32;;;;;;;4.13;0.80;;;;;;;20.99;54.39;96339.81;2075446;28;20197;-64
2022/10/23 11:11:36;;;;;;;2.38;0.88;;;;;;;21.07;54.24;96338.28;2074898;28;20293;-64
2022/10/23 11:12:39;;;;;;;3.38;0.70;;;;;;;21.04;54.57;96318.19;2073066;28;20292;-64
2022/10/23 11:13:42;;;;;;;1.40;0.68;;;;;;;21.23;53.75;96327.94;2076720;28;20237;-64
2022/10/23 11:14:44;;;;;;;1.50;0.80;;;;;;;21.19;54.03;96326.50;2066338;28;20309;-64
2022/10/23 11:15:46;;;;;;;1.92;0.80;;;;;;;20.94;55.30;96333.25;2065802;28;20292;-64
2022/10/23 11:16:56;;;;;;;1.33;0.70;;;;;;;20.36;56.17;96326.91;2072802;28;20193;-64
2022/10/23 11:18:02;;;;;;;3.28;0.80;;;;;;;20.61;56.01;96322.91;2077086;28;20288;-64
2022/10/23 11:19:24;;;;;;;11.75;1.08;;;;;;;20.19;57.52;96323.97;2073067;28;20201;-65
2022/10/23 11:20:43;;;;;;;3.13;1.00;;;;;;;20.10;57.99;96302.72;2090639;28;20196;-64
2022/10/23 11:22:23;;;;;;;3.70;0.90;;;;;;;19.97;57.65;96308.28;2088543;28;20202;-64
2022/10/23 11:23:45;;;;;;;1.33;0.70;;;;;;;19.79;57.57;96306.25;2091554;28;20200;-64
2022/10/23 11:25:00;;;;;;;3.55;1.00;;;;;;;19.90;58.43;96300.88;2091590;28;20352;-64
2022/10/23 11:26:38;;;;;;;2.38;0.70;;;;;;;20.03;57.78;96295.31;2092838;28;20945;-65
2022/10/23 11:28:26;;;;;;;3.60;0.85;;;;;;;20.02;57.43;96304.25;2091921;28;20877;-64
2022/10/23 11:30:05;;;;;;;3.55;0.90;;;;;;;20.62;56.22;96313.97;2082202;28;20314;-65
2022/10/23 11:31:34;;;;;;;3.88;0.80;;;;;;;20.80;56.91;96315.97;2092071;28;20353;-62
2022/10/23 11:32:43;;;;;;;1.73;0.88;;;;;;;20.50;55.67;96305.28;2092827;28;20686;-65
2022/10/23 11:34:35;;;;;;;2.90;0.80;;;;;;;20.08;57.34;96310.00;2092052;28;20289;-64
2022/10/23 11:35:59;;;;;;;3.65;0.75;;;;;;;20.49;56.09;96314.25;2066908;28;20241;-67
2022/10/23 11:37:02;;;;;;;4.60;0.90;;;;;;;20.09;57.35;96266.59;2066291;28;20225;-64
2022/10/23 11:38:15;;;;;;;1.85;0.75;;;;;;;20.03;56.84;96299.78;2066538;28;20206;-67
2022/10/23 11:39:25;;;;;;;1.45;0.70;;;;;;;19.93;57.86;96298.94;2065814;28;20336;-64
2022/10/23 11:40:28;;;;;;;1.85;1.00;;;;;;;19.85;58.58;96302.25;2058518;28;20199;-66
2022/10/23 11:41:32;;;;;;;2.38;1.13;;;;;;;20.08;57.64;96291.44;2079072;28;20325;-66
2022/10/23 11:42:40;;;;;;;2.28;1.13;;;;;;;20.29;57.79;96289.53;2083765;28;20229;-66
2022/10/23 11:43:51;;;;;;;2.65;1.33;;;;;;;20.41;57.35;96292.06;2081768;28;21102;-66
2022/10/23 11:44:53;;;;;;;1.85;0.90;;;;;;;20.22;56.66;96299.00;2082137;28;20319;-66
2022/10/23 11:45:54;;;;;;;1.33;0.70;;;;;;;20.01;58.27;96293.78;2080983;28;20220;-66
2022/10/23 11:47:01;;;;;;;4.35;0.95;;;;;;;20.11;58.87;96289.34;2083282;28;20254;-66
2022/10/23 11:48:20;;;;;;;1.75;0.60;;;;;;;20.09;58.74;96290.44;2083923;28;20197;-65
2022/10/23 11:56:11;;;;;;;3.75;1.02;;;;;;;20.00;57.01;96285.00;2083390;28;20296;-64
2022/10/23 11:57:16;;;;;;;30.13;9.25;;;;;;;20.35;57.63;96281.03;2084891;28;20718;-64
2022/10/23 11:58:20;;;;;;;2.65;1.08;;;;;;;20.42;57.06;96285.75;2085500;28;20283;-65
2022/10/23 11:59:35;;;;;;;3.20;0.80;;;;;;;20.67;56.16;96287.88;2083472;28;20307;-64
2022/10/23 12:00:56;;;;;;;2.85;1.00;;;;;;;20.86;56.50;96286.19;2083843;28;20955;-64
2022/10/23 12:20:09;;;;;;;2.88;0.88;;;;;;;20.27;58.36;96264.13;2082539;28;20217;-64
2022/10/23 12:21:18;;;;;;;2.45;1.02;;;;;;;20.30;58.30;96255.88;2084525;28;20554;-64
2022/10/23 12:22:32;;;;;;;4.47;1.00;;;;;;;19.96;58.95;96267.72;2083649;28;20297;-65
2022/10/23 12:23:47;;;;;;;2.00;1.00;;;;;;;20.18;58.82;96263.97;2083983;28;20197;-67
2022/10/23 12:24:57;;;;;;;1.50;0.90;;;;;;;20.55;58.03;96260.63;2083225;28;20277;-65
2022/10/23 12:26:18;;;;;;;2.10;0.80;;;;;;;20.65;58.39;96271.25;2084311;28;20672;-64
2022/10/23 12:27:32;;;;;;;6.25;0.90;;;;;;;20.80;57.72;96268.22;2083550;28;20200;-64
2022/10/23 12:28:48;;;;;;;6.13;0.80;;;;;;;21.12;57.74;96262.53;2082252;28;20231;-64
2022/10/23 12:30:14;;;;;;;3.70;0.85;;;;;;;21.24;56.44;96260.53;2080368;28;20418;-64
2022/10/23 12:31:29;;;;;;;9.23;0.80;;;;;;;21.30;56.53;96259.16;2083217;28;20275;-64
2022/10/23 12:32:45;;;;;;;4.38;0.82;;;;;;;21.54;56.37;96254.16;2084490;28;20235;-64
2022/10/23 12:34:08;;;;;;;3.60;0.90;;;;;;;22.07;55.50;96256.28;2084752;28;20283;-64
2022/10/23 12:35:46;;;;;;;3.38;0.88;;;;;;;22.53;53.80;96249.13;2093637;28;20370;-65
2022/10/23 12:37:02;;;;;;;4.18;1.10;;;;;;;22.95;53.36;96243.13;2093218;28;20631;-64
2022/10/23 12:38:13;;;;;;;2.88;0.80;;;;;;;22.62;53.38;96247.38;2093864;28;20234;-65
2022/10/23 12:39:25;;;;;;;7.35;0.90;;;;;;;21.89;54.84;96240.31;2100057;28;20686;-64
2022/10/23 12:40:29;;;;;;;4.15;0.80;;;;;;;21.72;55.77;96239.28;2098319;28;20198;-64
2022/10/23 12:41:33;;;;;;;1.38;0.80;;;;;;;21.88;55.10;96242.13;2097001;28;20234;-64
2022/10/23 12:42:36;;;;;;;1.80;0.80;;;;;;;22.38;54.75;96234.69;2096641;28;20518;-64
2022/10/23 12:43:40;;;;;;;2.33;0.77;;;;;;;22.86;53.95;96244.06;2094288;28;20200;-64
2022/10/23 12:44:41;;;;;;;2.30;1.10;;;;;;;23.16;54.32;96239.31;2092760;28;20711;-64
2022/10/23 12:45:43;;;;;;;3.25;0.80;;;;;;;22.73;54.65;96231.16;2092283;28;20271;-65
2022/10/23 12:46:50;;;;;;;1.58;0.80;;;;;;;22.71;54.15;96227.00;2092682;28;20223;-65
2022/10/23 12:47:52;;;;;;;2.67;1.00;;;;;;;22.83;53.11;96229.25;2092790;28;20210;-64
2022/10/23 12:48:55;;;;;;;3.50;1.08;;;;;;;22.88;53.55;96214.63;2093140;28;20207;-64
2022/10/23 12:49:57;;;;;;;3.55;1.00;;;;;;;23.13;52.05;96226.28;2092760;28;20687;-65
2022/10/23 12:50:58;;;;;;;2.75;1.00;;;;;;;23.55;52.55;96219.38;2092412;28;20231;-65
2022/10/23 12:52:03;;;;;;;4.32;1.20;;;;;;;23.54;50.93;96221.19;2097221;28;20302;-65
2022/10/23 12:53:07;;;;;;;1.25;0.65;;;;;;;23.83;49.90;96217.28;2089614;28;20287;-66
2022/10/23 12:54:19;;;;;;;3.47;0.85;;;;;;;23.52;51.27;96222.34;2094559;28;20283;-65
2022/10/23 12:55:22;;;;;;;5.70;0.98;;;;;;;23.60;49.67;96217.03;2093020;28;20241;-68
2022/10/23 12:56:34;;;;;;;1.90;0.95;;;;;;;23.79;49.91;96205.28;2094545;28;20993;-66
2022/10/23 12:57:42;;;;;;;1.90;0.73;;;;;;;23.92;50.32;96221.69;2093362;28;20239;-67
2022/10/23 12:58:50;;;;;;;2.60;1.00;;;;;;;24.53;49.69;96217.94;2092375;28;20197;-66
2022/10/23 12:59:57;;;;;;;1.30;0.70;;;;;;;24.70;49.14;96200.13;2096378;28;20258;-66
2022/10/23 13:01:05;;;;;;;3.60;0.80;;;;;;;23.67;50.51;96201.25;2095386;28;20283;-66
2022/10/23 13:02:19;;;;;;;4.22;1.00;;;;;;;25.09;48.89;96204.75;2089572;28;20201;-67
2022/10/23 13:03:23;;;;;;;1.63;0.90;;;;;;;25.59;47.47;96198.25;2091588;28;20196;-67
2022/10/23 13:04:25;;;;;;;2.28;0.90;;;;;;;25.24;46.75;96165.66;2091733;28;20290;-67
2022/10/23 13:05:28;;;;;;;3.13;1.00;;;;;;;25.46;46.71;96194.47;2091486;28;20209;-67
2022/10/23 13:06:30;;;;;;;2.55;0.80;;;;;;;25.87;45.61;96168.38;2093089;28;20234;-67
2022/10/23 13:13:02;;;;;;;6.38;1.05;;;;;;;26.34;43.71;96187.19;2091565;28;20179;-69
2022/10/23 13:14:11;;;;;;;3.70;0.80;;;;;;;26.22;44.20;96182.25;2097101;28;20717;-70
2022/10/23 13:15:19;;;;;;;3.40;0.80;;;;;;;25.94;44.04;96171.19;2096305;28;20287;-70
2022/10/23 13:16:25;;;;;;;1.73;0.80;;;;;;;25.61;45.41;96184.75;2096172;28;20239;-71
2022/10/23 13:17:36;;;;;;;2.13;0.73;;;;;;;25.22;45.65;96178.34;2092936;28;20602;-71
2022/10/23 13:18:41;;;;;;;1.75;0.80;;;;;;;25.35;46.38;96183.13;2093512;28;20287;-71
2022/10/23 13:19:42;;;;;;;4.80;1.00;;;;;;;24.97;47.99;96182.91;2091235;28;20263;-71
2022/10/23 13:20:51;;;;;;;3.28;0.90;;;;;;;25.70;45.77;96188.19;2091249;28;20227;-71
2022/10/23 13:21:52;;;;;;;1.27;0.70;;;;;;;25.43;45.09;96183.16;2091273;28;20203;-72
2022/10/23 13:23:25;;;;;;;2.50;1.00;;;;;;;25.02;46.85;96183.22;2089355;28;20227;-72
2022/10/23 13:24:29;;;;;;;3.30;0.90;;;;;;;24.75;46.28;96181.78;2088110;28;20254;-73
2022/10/23 13:25:33;;;;;;;7.20;0.93;;;;;;;24.87;46.44;96172.41;2089980;28;20230;-74
2022/10/23 13:26:46;;;;;;;3.28;1.02;;;;;;;25.07;46.41;96175.53;2092870;28;20279;-72
2022/10/23 13:27:47;;;;;;;4.20;0.93;;;;;;;24.85;47.36;96178.91;2091761;28;20684;-72
2022/10/23 13:28:49;;;;;;;1.75;0.80;;;;;;;24.73;46.52;96173.91;2093395;28;20283;-73
2022/10/23 13:29:51;;;;;;;2.90;1.00;;;;;;;24.07;48.31;96155.22;2088752;28;20265;-72
2022/10/23 13:31:13;;;;;;;5.13;1.15;;;;;;;24.91;46.24;96180.91;2092014;28;20341;-72
2022/10/23 13:32:22;;;;;;;2.10;0.85;;;;;;;23.90;48.74;96158.84;2084963;28;20224;-72
2022/10/23 13:33:30;;;;;;;2.20;0.80;;;;;;;23.96;49.25;96176.88;2092841;28;20288;-72
2022/10/23 13:34:31;;;;;;;4.40;0.90;;;;;;;24.55;47.67;96178.59;2093689;28;20251;-71
2022/10/23 13:35:32;;;;;;;2.65;0.90;;;;;;;24.12;48.50;96176.06;2092537;28;20291;-71
2022/10/23 13:36:35;;;;;;;1.52;0.80;;;;;;;23.41;50.35;96171.00;2089419;28;20291;-71
2022/10/23 13:37:37;;;;;;;4.40;0.88;;;;;;;22.62;52.54;96162.25;2090833;28;20220;-71
2022/10/23 13:38:42;;;;;;;2.75;0.70;;;;;;;22.17;52.95;96167.50;2093515;28;20682;-71
2022/10/23 13:39:43;;;;;;;8.50;0.90;;;;;;;22.58;52.79;96163.53;2092192;28;20314;-71
2022/10/23 13:40:55;;;;;;;7.18;0.82;;;;;;;22.87;52.65;96179.19;2089559;28;20204;-71
2022/10/23 13:42:09;;;;;;;1.20;0.70;;;;;;;22.44;52.91;96154.31;2092237;28;20251;-71
2022/10/23 13:43:15;;;;;;;5.30;1.00;;;;;;;22.78;54.48;96169.50;2086084;28;20613;-70
2022/10/23 13:44:20;;;;;;;3.88;0.80;;;;;;;22.85;54.48;96173.19;2091849;28;20587;-70
2022/10/23 13:45:24;;;;;;;3.00;0.90;;;;;;;22.32;55.58;96173.13;2091721;28;20204;-70
2022/10/23 13:46:25;;;;;;;1.83;0.85;;;;;;;22.32;54.92;96170.47;2091683;28;20254;-70
2022/10/23 13:47:27;;;;;;;1.90;0.70;;;;;;;21.51;56.69;96166.81;2092280;28;20288;-70
2022/10/23 13:48:28;;;;;;;1.65;0.60;;;;;;;21.56;56.29;96166.41;2091061;28;20196;-69
2022/10/23 13:56:08;;;;;;;6.45;1.17;;;;;;;21.12;57.37;96151.06;2089011;28;20244;-69
2022/10/23 13:57:14;;;;;;;6.38;0.95;;;;;;;20.70;58.13;96138.19;2094436;28;20336;-69
2022/10/23 13:58:15;;;;;;;4.03;0.90;;;;;;;20.83;58.25;96156.47;2092892;28;20769;-69
2022/10/23 13:59:17;;;;;;;1.95;0.80;;;;;;;20.62;58.49;96149.53;2092560;28;20227;-69
2022/10/23 14:00:18;;;;;;;3.67;1.00;;;;;;;20.51;59.76;96161.13;2092364;28;20203;-70
2022/10/23 14:13:00;;;;;;;9.07;1.00;;;;;;;19.79;62.35;96165.03;2091715;28;20206;-68
2022/10/23 14:14:06;;;;;;;3.00;0.82;;;;;;;19.81;63.15;96158.59;2091149;28;20193;-68
2022/10/23 14:15:09;;;;;;;2.20;1.00;;;;;;;19.85;62.16;96152.09;2090130;28;20320;-68
2022/10/23 14:16:13;;;;;;;1.38;0.80;;;;;;;19.68;62.53;96136.84;2090070;28;20255;-68
2022/10/23 14:17:14;;;;;;;3.35;1.10;;;;;;;19.92;62.39;96148.88;2092783;28;20843;-67
2022/10/23 14:18:15;;;;;;;2.40;1.10;;;;;;;19.85;61.24;96148.59;2091885;28;20850;-68
2022/10/23 14:19:20;;;;;;;2.97;0.95;;;;;;;19.75;61.74;96140.63;2092035;28;20249;-68
2022/10/23 14:20:22;;;;;;;3.75;1.00;;;;;;;19.85;61.00;96140.66;2093462;28;20279;-67
2022/10/23 14:21:27;;;;;;;4.45;1.10;;;;;;;19.92;61.00;96130.34;2090529;28;20192;-68
2022/10/23 14:22:28;;;;;;;2.67;0.80;;;;;;;19.98;60.70;96145.69;2091013;28;20283;-68
2022/10/23 14:23:30;;;;;;;3.88;1.00;;;;;;;19.90;59.99;96125.19;2088531;28;20279;-67
2022/10/23 14:24:35;;;;;;;6.47;0.90;;;;;;;19.98;59.67;96130.59;2090755;28;20261;-67
2022/10/23 14:25:37;;;;;;;2.92;1.10;;;;;;;20.02;58.86;96145.28;2092930;28;20268;-67
2022/10/23 14:26:38;;;;;;;7.88;1.20;;;;;;;19.86;59.03;96124.63;2092530;28;20654;-67
2022/10/23 14:27:40;;;;;;;8.15;1.10;;;;;;;20.05;59.66;96152.94;2090740;28;20323;-67
2022/10/23 14:28:42;;;;;;;2.60;1.00;;;;;;;20.11;58.76;96148.06;2092620;28;20192;-67
2022/10/23 14:29:46;;;;;;;3.42;1.05;;;;;;;20.23;57.68;96152.22;2090978;28;20220;-67
2022/10/23 14:30:48;;;;;;;5.00;0.90;;;;;;;20.25;57.02;96144.13;2093325;28;20199;-67
2022/10/23 14:31:49;;;;;;;4.05;1.05;;;;;;;20.13;55.59;96120.44;2091520;28;20238;-67
2022/10/23 14:32:51;;;;;;;4.20;1.20;;;;;;;20.32;56.34;96159.34;2090694;28;20893;-67
2022/10/23 14:33:57;;;;;;;5.00;0.80;;;;;;;20.35;56.22;96153.75;2092873;28;20330;-67
2022/10/23 14:35:02;;;;;;;2.97;0.95;;;;;;;20.27;56.36;96158.91;2090922;28;20314;-67
2022/10/23 14:36:04;;;;;;;3.65;1.35;;;;;;;20.25;56.56;96155.56;2088688;28;20208;-67
2022/10/23 14:55:14;;;;;;;1.40;0.80;;;;;;;19.86;58.28;96111.38;2092334;28;20199;-66
2022/10/23 14:56:16;;;;;;;3.15;0.90;;;;;;;19.86;58.43;96110.56;2090356;28;20702;-66
2022/10/23 14:57:20;;;;;;;9.70;1.60;;;;;;;19.97;58.13;96118.38;2090955;28;20700;-66
2022/10/23 14:58:23;;;;;;;4.18;1.00;;;;;;;19.90;58.43;96112.75;2091686;28;20196;-67
2022/10/23 14:59:24;;;;;;;8.63;1.30;;;;;;;19.90;58.23;96122.53;2092391;28;20232;-66
2022/10/23 15:00:26;;;;;;;3.33;1.20;;;;;;;19.86;59.20;96098.13;2096238;28;20601;-66
2022/10/23 15:01:32;;;;;;;2.72;1.20;;;;;;;19.89;60.11;96097.00;2096081;28;20282;-66
2022/10/23 15:02:34;;;;;;;7.78;1.30;;;;;;;19.86;59.69;96094.66;2094604;28;20725;-66
2022/10/23 15:03:35;;;;;;;1.83;1.20;;;;;;;19.95;59.31;96114.16;2096285;28;20279;-66
2022/10/23 15:04:38;;;;;;;2.60;1.10;;;;;;;20.03;59.06;96104.53;2090847;28;20773;-66
2022/10/23 15:05:41;;;;;;;5.35;0.90;;;;;;;20.11;58.71;96101.16;2088163;28;20228;-66
2022/10/23 15:06:43;;;;;;;2.10;0.95;;;;;;;20.22;58.33;96116.91;2092672;28;20227;-66
2022/10/23 15:07:45;;;;;;;4.03;1.17;;;;;;;20.30;57.23;96096.84;2092074;28;20378;-67
2022/10/23 15:08:50;;;;;;;8.35;1.42;;;;;;;20.33;57.23;96108.00;2092593;28;20641;-65
2022/10/23 15:09:51;;;;;;;4.10;1.00;;;;;;;20.52;57.93;96112.41;2093119;28;20644;-66
2022/10/23 15:10:59;;;;;;;2.65;1.50;;;;;;;20.53;57.74;96116.75;2088744;28;20235;-67